Lux, Mississippi
Current Conditions -  °F | °C
As of 5:53 PM on Sunday 25 Jan 2015 (Local Time) from KHBG Reporting Station
Few Clouds Few Clouds  
Wind Chill: 60°   Ceiling: Unl
Heat Index: 60°   Visibility: 10mi
Dew Point: 40°   Wind: 5mph
Humidity: 47%   Direction: 220°SW
Pressure: 29.83"   Gusts: NA
Location:  31.1996°N, 89.2694°W
Report Text: KHBG 252353Z AUTO 22004KT 10SM FEW080 16/04 A2983 RMK AO2 SLP100 T01560044 10194 20156 53000
Loading
Personal Weather Stations






























Interactive Weather Map New forecast layout! Learn more

10-Day Weather Forecast

Advertisements
Track Severe Weather on mobile